createdAt,value
2023-03-30T00:00:18.130Z,39.16
2023-03-30T00:03:05.419Z,39.20
2023-03-30T00:05:32.793Z,39.33
2023-03-30T00:08:00.292Z,38.99
2023-03-30T00:10:27.506Z,39.15
2023-03-30T00:12:54.451Z,38.77
2023-03-30T00:15:22.852Z,38.78
2023-03-30T00:17:50.564Z,38.87
2023-03-30T00:20:18.511Z,39.05
2023-03-30T00:22:46.876Z,39.21
2023-03-30T00:25:15.796Z,38.90
2023-03-30T00:27:42.898Z,39.31
2023-03-30T00:30:15.434Z,38.79
2023-03-30T00:32:46.021Z,38.94
2023-03-30T00:35:13.479Z,39.11
2023-03-30T00:37:40.389Z,39.09
2023-03-30T00:40:09.699Z,39.01
2023-03-30T00:42:36.977Z,39.19
2023-03-30T00:45:21.956Z,39.12
2023-03-30T00:47:52.110Z,39.11
2023-03-30T00:50:24.004Z,39.21
2023-03-30T00:52:52.390Z,39.24
2023-03-30T00:55:23.843Z,39.16
2023-03-30T00:57:51.318Z,38.93
2023-03-30T01:00:18.790Z,39.06
2023-03-30T01:02:49.795Z,39.32
2023-03-30T01:05:17.127Z,39.00
2023-03-30T01:07:46.327Z,39.20
2023-03-30T01:10:13.769Z,39.25
2023-03-30T01:12:40.685Z,39.12
2023-03-30T01:15:08.737Z,39.19
2023-03-30T01:17:39.331Z,38.89
2023-03-30T01:20:25.699Z,39.42
2023-03-30T01:23:04.573Z,39.28
2023-03-30T01:25:56.462Z,39.00
2023-03-30T01:28:53.154Z,39.68
2023-03-30T01:31:25.949Z,39.53
2023-03-30T01:34:14.510Z,39.57
2023-03-30T01:37:09.694Z,39.25
2023-03-30T01:39:57.915Z,39.47
2023-03-30T01:42:33.818Z,39.45
2023-03-30T01:45:07.135Z,39.26
2023-03-30T01:47:47.930Z,39.52
2023-03-30T01:50:20.380Z,39.50
2023-03-30T01:52:59.389Z,39.36
2023-03-30T01:55:28.670Z,39.70
2023-03-30T01:57:57.641Z,39.35
2023-03-30T02:00:24.557Z,39.31
2023-03-30T02:02:55.497Z,39.59
2023-03-30T02:05:23.130Z,39.65
2023-03-30T02:07:53.033Z,39.60
2023-03-30T02:10:20.225Z,39.21
2023-03-30T02:12:47.380Z,39.58
2023-03-30T02:15:14.373Z,39.39
2023-03-30T02:17:42.472Z,39.17
2023-03-30T02:20:10.872Z,39.11
2023-03-30T02:22:38.141Z,39.11
2023-03-30T02:25:05.612Z,39.47
2023-03-30T02:27:32.990Z,39.47
2023-03-30T02:30:00.186Z,39.34
2023-03-30T02:32:46.466Z,39.71
2023-03-30T02:35:42.129Z,39.28
2023-03-30T02:38:32.265Z,39.46
2023-03-30T02:41:16.360Z,39.37
2023-03-30T02:43:56.119Z,39.08
2023-03-30T02:46:33.719Z,39.47
2023-03-30T02:49:09.887Z,39.45
2023-03-30T02:51:45.817Z,39.50
2023-03-30T02:54:32.683Z,39.58
2023-03-30T02:57:07.830Z,39.47
2023-03-30T03:00:13.118Z,39.58
2023-03-30T03:02:42.131Z,39.56
2023-03-30T03:05:11.081Z,39.80
2023-03-30T03:07:38.535Z,39.48
2023-03-30T03:10:06.730Z,39.60
2023-03-30T03:12:33.935Z,39.82
2023-03-30T03:15:05.670Z,39.81
2023-03-30T03:17:35.377Z,39.77
2023-03-30T03:20:04.061Z,39.66
2023-03-30T03:22:31.300Z,39.69
2023-03-30T03:24:58.336Z,39.75
2023-03-30T03:27:25.180Z,39.96
2023-03-30T03:29:52.249Z,39.63
2023-03-30T03:32:19.002Z,39.75
2023-03-30T03:34:46.160Z,39.76
2023-03-30T03:37:13.038Z,39.72
2023-03-30T03:39:40.185Z,39.72
2023-03-30T03:42:07.227Z,39.90
2023-03-30T03:44:34.346Z,39.55
2023-03-30T03:47:01.211Z,39.94
2023-03-30T03:49:28.388Z,39.76
2023-03-30T03:51:55.219Z,39.81
2023-03-30T03:54:22.467Z,39.97
2023-03-30T03:56:49.370Z,40.22
2023-03-30T03:59:16.712Z,40.12
2023-03-30T04:01:43.499Z,39.83
2023-03-30T04:04:11.010Z,39.72
2023-03-30T04:06:37.805Z,39.81
2023-03-30T04:09:04.891Z,40.00
2023-03-30T04:11:32.005Z,39.89
2023-03-30T04:13:59.115Z,40.21
2023-03-30T04:16:25.969Z,39.96
2023-03-30T04:18:53.081Z,40.07
2023-03-30T04:21:20.364Z,40.03
2023-03-30T04:23:49.225Z,40.07
2023-03-30T04:26:17.547Z,39.81
2023-03-30T04:28:44.675Z,39.92
2023-03-30T04:31:12.907Z,39.99
2023-03-30T04:33:52.112Z,40.19
2023-03-30T04:36:20.134Z,40.03
2023-03-30T04:39:00.575Z,39.68
2023-03-30T04:41:33.369Z,40.18
2023-03-30T04:44:02.520Z,39.80
2023-03-30T04:46:29.403Z,40.22
2023-03-30T04:48:56.732Z,39.95
2023-03-30T04:51:23.677Z,39.99
2023-03-30T04:53:50.850Z,40.69
2023-03-30T04:56:17.798Z,40.24
2023-03-30T04:58:44.941Z,40.46
2023-03-30T05:01:11.776Z,40.09
2023-03-30T05:03:39.086Z,40.48
2023-03-30T05:06:06.305Z,40.29
2023-03-30T05:08:34.352Z,40.61
2023-03-30T05:11:05.205Z,40.45
2023-03-30T05:13:32.500Z,40.67
2023-03-30T05:15:59.265Z,40.56
2023-03-30T05:18:26.389Z,40.41
2023-03-30T05:20:56.796Z,40.42
2023-03-30T05:23:24.566Z,40.68
2023-03-30T05:25:51.703Z,40.72
2023-03-30T05:28:18.836Z,40.92
2023-03-30T05:30:46.889Z,40.66
2023-03-30T05:33:13.962Z,40.81
2023-03-30T05:35:41.006Z,41.17
2023-03-30T05:38:08.498Z,41.17
2023-03-30T05:40:35.501Z,41.08
2023-03-30T05:43:02.775Z,41.00
2023-03-30T05:45:29.582Z,40.87
2023-03-30T05:47:56.706Z,41.12
2023-03-30T05:50:23.493Z,40.73
2023-03-30T05:52:50.741Z,41.24
2023-03-30T05:55:17.744Z,41.01
2023-03-30T05:57:45.702Z,41.26
2023-03-30T06:00:13.972Z,41.13
2023-03-30T06:02:41.170Z,41.04
2023-03-30T06:05:08.601Z,41.00
2023-03-30T06:07:37.549Z,41.24
2023-03-30T06:10:06.176Z,40.90
2023-03-30T06:12:33.609Z,41.30
2023-03-30T06:15:03.225Z,40.99
2023-03-30T06:17:30.574Z,41.28
2023-03-30T06:19:57.438Z,41.17
2023-03-30T06:22:24.569Z,41.11
2023-03-30T06:24:51.656Z,41.18
2023-03-30T06:27:18.737Z,41.42
2023-03-30T06:29:45.565Z,41.42
2023-03-30T06:32:12.754Z,41.38
2023-03-30T06:34:39.605Z,41.61
2023-03-30T06:37:08.547Z,41.46
2023-03-30T06:39:37.860Z,41.50
2023-03-30T06:42:05.872Z,41.49
2023-03-30T06:44:33.841Z,41.25
2023-03-30T06:47:01.876Z,41.04
2023-03-30T06:49:28.568Z,41.20
2023-03-30T06:51:55.660Z,41.38
2023-03-30T06:54:22.594Z,41.24
2023-03-30T06:56:50.010Z,41.28
2023-03-30T06:59:17.035Z,41.28
2023-03-30T07:01:44.861Z,41.42
2023-03-30T07:04:11.796Z,41.39
2023-03-30T07:06:38.954Z,41.17
2023-03-30T07:09:05.805Z,40.98
2023-03-30T07:11:32.906Z,41.04
2023-03-30T07:14:01.246Z,40.91
2023-03-30T07:16:28.489Z,40.97
2023-03-30T07:18:55.286Z,41.04
2023-03-30T07:21:22.462Z,41.05
2023-03-30T07:23:49.383Z,41.19
2023-03-30T07:26:16.948Z,41.04
2023-03-30T07:28:45.644Z,41.08
2023-03-30T07:31:13.922Z,40.87
2023-03-30T07:33:41.192Z,40.54
2023-03-30T07:36:09.148Z,40.77
2023-03-30T07:38:36.402Z,40.64
2023-03-30T07:41:10.180Z,40.79
2023-03-30T07:43:37.137Z,40.71
2023-03-30T07:46:04.570Z,40.79
2023-03-30T07:48:31.441Z,40.93
2023-03-30T07:51:06.978Z,40.65
2023-03-30T07:53:33.872Z,40.52
2023-03-30T07:56:01.238Z,40.50
2023-03-30T07:58:29.099Z,40.68
2023-03-30T08:00:56.300Z,40.29
2023-03-30T08:03:23.398Z,40.62
2023-03-30T08:05:54.368Z,40.38
2023-03-30T08:08:21.232Z,40.17
2023-03-30T08:10:48.331Z,40.19
2023-03-30T08:13:15.179Z,39.92
2023-03-30T08:15:42.305Z,40.11
2023-03-30T08:18:09.347Z,39.92
2023-03-30T08:20:37.234Z,40.12
2023-03-30T08:23:05.008Z,39.87
2023-03-30T08:25:32.932Z,39.78
2023-03-30T08:27:59.868Z,39.86
2023-03-30T08:30:27.285Z,40.14
2023-03-30T08:32:54.201Z,39.97
2023-03-30T08:35:21.889Z,39.99
2023-03-30T08:37:48.878Z,39.71
2023-03-30T08:40:19.409Z,39.79
2023-03-30T08:42:47.442Z,39.78
2023-03-30T08:45:14.675Z,39.70
2023-03-30T08:47:48.898Z,40.01
2023-03-30T08:50:16.986Z,39.63
2023-03-30T08:52:43.839Z,39.65
2023-03-30T08:55:21.949Z,39.69
2023-03-30T08:57:52.153Z,39.50
2023-03-30T09:00:38.650Z,39.51
2023-03-30T09:03:18.856Z,39.56
2023-03-30T09:06:08.425Z,39.84
2023-03-30T09:08:35.268Z,39.71
2023-03-30T09:11:04.792Z,39.85
2023-03-30T09:13:33.724Z,39.44
2023-03-30T09:16:26.228Z,39.54
2023-03-30T09:18:54.494Z,39.57
2023-03-30T09:21:22.414Z,39.54
2023-03-30T09:23:49.309Z,39.26
2023-03-30T09:26:41.214Z,39.30
2023-03-30T09:29:14.382Z,39.25
2023-03-30T09:31:46.461Z,39.24
2023-03-30T09:34:38.217Z,39.25
2023-03-30T09:37:07.538Z,39.42
2023-03-30T09:39:35.445Z,39.14
2023-03-30T09:42:08.997Z,38.97
2023-03-30T09:44:39.450Z,39.14
2023-03-30T09:47:23.150Z,39.18
2023-03-30T09:49:58.368Z,38.79
2023-03-30T09:52:27.467Z,39.23
2023-03-30T09:54:54.398Z,39.02
2023-03-30T09:57:24.524Z,39.07
2023-03-30T09:59:52.929Z,39.10
2023-03-30T10:02:20.796Z,39.02
2023-03-30T10:04:53.927Z,39.04
2023-03-30T10:07:26.708Z,39.03
2023-03-30T10:09:53.755Z,38.98
2023-03-30T10:12:22.212Z,38.88
2023-03-30T10:14:54.020Z,38.90
2023-03-30T10:17:23.298Z,38.82
2023-03-30T10:20:00.408Z,38.78
2023-03-30T10:22:34.562Z,38.83
2023-03-30T10:25:01.799Z,38.89
2023-03-30T10:27:37.266Z,38.76
2023-03-30T10:30:11.910Z,38.71
2023-03-30T10:32:39.030Z,38.73
2023-03-30T10:35:09.112Z,38.59
2023-03-30T10:37:38.319Z,38.72
2023-03-30T10:40:18.801Z,38.77
2023-03-30T10:42:47.264Z,38.71
2023-03-30T10:45:16.480Z,38.52
2023-03-30T10:47:57.982Z,38.66
2023-03-30T10:51:06.322Z,38.70
2023-03-30T10:53:45.074Z,38.65
2023-03-30T10:56:26.649Z,38.79
2023-03-30T10:59:27.774Z,38.86
2023-03-30T11:02:01.368Z,38.78
2023-03-30T11:04:30.715Z,38.61
2023-03-30T11:06:57.638Z,38.73
2023-03-30T11:09:32.837Z,38.91
2023-03-30T11:12:02.181Z,38.67
2023-03-30T11:14:50.684Z,38.87
2023-03-30T11:17:23.810Z,38.88
2023-03-30T11:19:54.272Z,38.77
2023-03-30T11:22:33.635Z,38.83
2023-03-30T11:25:00.861Z,38.71
2023-03-30T11:27:34.077Z,39.22
2023-03-30T11:30:22.255Z,39.12
2023-03-30T11:32:57.525Z,39.22
2023-03-30T11:35:24.697Z,39.13
2023-03-30T11:38:05.850Z,39.36
2023-03-30T11:40:39.211Z,39.36
2023-03-30T11:43:06.084Z,39.48
2023-03-30T11:45:48.912Z,39.59
2023-03-30T11:48:19.662Z,39.60
2023-03-30T11:51:11.618Z,39.23
2023-03-30T11:53:47.491Z,39.59
2023-03-30T11:56:19.585Z,39.54
2023-03-30T11:58:58.553Z,39.87
2023-03-30T12:01:54.712Z,39.51
2023-03-30T12:04:45.905Z,39.61
2023-03-30T12:07:22.681Z,39.61
2023-03-30T12:10:20.839Z,39.41
2023-03-30T12:12:49.790Z,39.58
2023-03-30T12:15:34.891Z,40.06
2023-03-30T12:18:20.377Z,39.92
2023-03-30T12:21:10.002Z,39.91
2023-03-30T12:23:52.810Z,39.99
2023-03-30T12:26:30.358Z,39.84
2023-03-30T12:32:04.765Z,40.08
2023-03-30T12:34:36.661Z,39.99
2023-03-30T12:37:10.273Z,40.21
2023-03-30T12:39:50.580Z,40.21
2023-03-30T12:42:26.673Z,40.07
2023-03-30T12:45:07.950Z,40.19
2023-03-30T12:48:24.189Z,40.41
2023-03-30T12:51:03.584Z,40.35
2023-03-30T12:53:52.576Z,40.38
2023-03-30T12:56:28.850Z,40.24
2023-03-30T12:59:17.329Z,40.28
2023-03-30T13:02:02.945Z,40.38
2023-03-30T13:04:41.624Z,40.19
2023-03-30T13:07:16.833Z,40.26
2023-03-30T13:10:06.407Z,40.48
2023-03-30T13:12:38.182Z,40.80
2023-03-30T13:15:17.353Z,40.49
2023-03-30T13:17:57.073Z,40.78
2023-03-30T13:20:37.156Z,40.62
2023-03-30T13:23:10.812Z,40.59
2023-03-30T13:25:49.849Z,41.11
2023-03-30T13:28:32.195Z,40.96
2023-03-30T13:31:07.837Z,41.28
2023-03-30T13:33:37.030Z,41.28
2023-03-30T13:36:32.350Z,41.65
2023-03-30T13:39:32.445Z,41.71
2023-03-30T13:42:03.293Z,41.84
2023-03-30T13:44:36.704Z,41.98
2023-03-30T13:47:33.180Z,42.38
2023-03-30T13:50:03.568Z,42.58
2023-03-30T13:52:38.349Z,42.80
2023-03-30T13:55:10.037Z,42.99
2023-03-30T13:57:38.306Z,43.33
2023-03-30T14:00:28.323Z,43.51
2023-03-30T14:02:55.370Z,43.51
2023-03-30T14:05:24.272Z,43.86
2023-03-30T14:07:55.138Z,44.09
2023-03-30T14:10:22.720Z,44.03
2023-03-30T14:12:55.223Z,44.30
2023-03-30T14:15:23.499Z,44.53
2023-03-30T14:17:54.527Z,44.59
2023-03-30T14:20:43.413Z,44.91
2023-03-30T14:23:23.169Z,45.05
2023-03-30T14:25:53.822Z,44.91
2023-03-30T14:28:21.248Z,45.04
2023-03-30T14:30:53.917Z,45.05
2023-03-30T14:33:21.010Z,44.87
2023-03-30T14:35:56.689Z,45.02
2023-03-30T14:38:25.497Z,45.45
2023-03-30T14:40:53.474Z,45.68
2023-03-30T14:43:22.304Z,45.85
2023-03-30T14:45:49.492Z,45.87
2023-03-30T14:48:21.613Z,46.42
2023-03-30T14:50:49.800Z,46.19
2023-03-30T14:53:24.484Z,46.64
2023-03-30T14:55:51.808Z,46.41
2023-03-30T14:58:18.780Z,46.54
2023-03-30T15:00:46.110Z,46.16
2023-03-30T15:03:26.441Z,46.00
2023-03-30T15:06:00.915Z,46.21
2023-03-30T15:08:30.484Z,46.40
2023-03-30T15:10:58.749Z,46.08
2023-03-30T15:13:36.756Z,45.64
2023-03-30T15:16:04.798Z,45.85
2023-03-30T15:18:31.680Z,45.91
2023-03-30T15:20:58.926Z,46.01
2023-03-30T15:23:28.220Z,46.17
2023-03-30T15:25:56.214Z,46.59
2023-03-30T15:28:23.013Z,46.59
2023-03-30T15:30:53.414Z,46.58
2023-03-30T15:33:20.417Z,46.52
2023-03-30T15:35:49.708Z,46.30
2023-03-30T15:38:17.203Z,46.51
2023-03-30T15:40:46.017Z,46.58
2023-03-30T15:43:17.031Z,46.78
2023-03-30T15:46:01.770Z,46.80
2023-03-30T15:48:46.180Z,46.65
2023-03-30T15:51:44.441Z,46.94
2023-03-30T15:54:16.152Z,46.94
2023-03-30T15:56:49.498Z,46.66
2023-03-30T15:59:18.705Z,46.99
2023-03-30T16:01:55.124Z,47.36
2023-03-30T16:04:23.703Z,47.12
2023-03-30T16:06:50.969Z,47.29
2023-03-30T16:09:17.832Z,47.33
2023-03-30T16:11:45.583Z,47.52
2023-03-30T16:14:14.247Z,47.02
2023-03-30T16:16:41.410Z,47.30
2023-03-30T16:19:17.456Z,47.20
2023-03-30T16:21:45.595Z,47.41
2023-03-30T16:24:12.607Z,47.65
2023-03-30T16:26:39.862Z,47.49
2023-03-30T16:29:15.989Z,47.51
2023-03-30T16:31:43.204Z,47.52
2023-03-30T16:34:10.020Z,48.01
2023-03-30T16:36:37.508Z,47.93
2023-03-30T16:39:05.740Z,47.89
2023-03-30T16:41:32.936Z,48.29
2023-03-30T16:43:59.697Z,48.15
2023-03-30T16:46:27.082Z,48.24
2023-03-30T16:48:53.929Z,48.61
2023-03-30T16:51:21.241Z,48.03
2023-03-30T16:53:48.069Z,48.16
2023-03-30T16:56:18.795Z,48.30
2023-03-30T16:58:46.096Z,48.03
2023-03-30T17:01:14.054Z,48.61
2023-03-30T17:03:40.862Z,47.61
2023-03-30T17:06:08.168Z,47.33
2023-03-30T17:08:34.955Z,48.22
2023-03-30T17:11:03.709Z,49.02
2023-03-30T17:13:31.951Z,48.70
2023-03-30T17:16:01.279Z,48.83
2023-03-30T17:18:28.445Z,48.76
2023-03-30T17:20:56.609Z,49.03
2023-03-30T17:23:25.636Z,49.26
2023-03-30T17:25:53.959Z,48.77
2023-03-30T17:28:49.464Z,48.43
2023-03-30T17:31:18.675Z,48.71
2023-03-30T17:33:46.368Z,48.63
2023-03-30T17:36:21.592Z,48.81
2023-03-30T17:38:48.472Z,48.67
2023-03-30T17:41:15.792Z,48.86
2023-03-30T17:43:43.713Z,48.33
2023-03-30T17:46:12.617Z,48.86
2023-03-30T17:48:39.677Z,48.49
2023-03-30T17:51:07.015Z,48.75
2023-03-30T17:53:33.934Z,48.63
2023-03-30T17:56:01.113Z,48.70
2023-03-30T17:58:32.012Z,48.75
2023-03-30T18:01:00.113Z,48.62
2023-03-30T18:03:29.419Z,49.15
2023-03-30T18:05:57.215Z,49.26
2023-03-30T18:08:24.468Z,48.88
2023-03-30T18:10:52.960Z,49.02
2023-03-30T18:13:20.486Z,48.69
2023-03-30T18:15:49.833Z,49.14
2023-03-30T18:18:24.790Z,49.32
2023-03-30T18:20:57.203Z,49.42
2023-03-30T18:23:24.008Z,49.10
2023-03-30T18:25:51.288Z,49.27
2023-03-30T18:28:25.642Z,49.06
2023-03-30T18:30:55.298Z,49.31
2023-03-30T18:33:23.329Z,49.07
2023-03-30T18:35:51.409Z,49.45
2023-03-30T18:38:20.129Z,49.46
2023-03-30T18:40:53.606Z,49.23
2023-03-30T18:43:20.446Z,48.83
2023-03-30T18:45:48.656Z,49.10
2023-03-30T18:48:17.527Z,49.33
2023-03-30T18:50:45.940Z,49.52
2023-03-30T18:53:14.070Z,49.23
2023-03-30T18:55:43.026Z,49.55
2023-03-30T18:58:21.068Z,49.49
2023-03-30T19:00:48.916Z,49.62
2023-03-30T19:03:16.840Z,49.03
2023-03-30T19:05:44.782Z,49.23
2023-03-30T19:08:18.748Z,49.34
2023-03-30T19:10:46.622Z,49.75
2023-03-30T19:13:14.273Z,49.24
2023-03-30T19:15:41.520Z,49.34
2023-03-30T19:18:08.558Z,49.86
2023-03-30T19:20:38.082Z,49.59
2023-03-30T19:23:05.058Z,50.04
2023-03-30T19:25:32.206Z,49.93
2023-03-30T19:28:03.798Z,50.05
2023-03-30T19:30:33.642Z,50.17
2023-03-30T19:33:03.311Z,50.02
2023-03-30T19:35:30.636Z,50.29
2023-03-30T19:37:57.587Z,50.47
2023-03-30T19:41:07.444Z,50.46
2023-03-30T19:44:07.818Z,50.59
2023-03-30T19:46:43.312Z,50.79
2023-03-30T19:49:54.699Z,50.70
2023-03-30T19:52:22.843Z,50.57
2023-03-30T19:54:58.790Z,50.76
2023-03-30T19:57:26.169Z,50.41
2023-03-30T19:59:53.036Z,50.35
2023-03-30T20:02:20.339Z,50.17
2023-03-30T20:04:47.730Z,50.62
2023-03-30T20:07:15.641Z,50.66
2023-03-30T20:09:42.568Z,50.71
2023-03-30T20:12:09.999Z,50.79
2023-03-30T20:14:37.227Z,51.20
2023-03-30T20:17:04.494Z,51.38
2023-03-30T20:19:31.264Z,51.37
2023-03-30T20:21:58.571Z,51.39
2023-03-30T20:24:25.841Z,51.21
2023-03-30T20:26:53.121Z,51.00
2023-03-30T20:29:19.881Z,51.09
2023-03-30T20:31:46.969Z,51.36
2023-03-30T20:34:15.484Z,51.16
2023-03-30T20:36:42.866Z,50.88
2023-03-30T20:39:10.133Z,51.01
2023-03-30T20:41:40.063Z,51.36
2023-03-30T20:44:18.164Z,51.17
2023-03-30T20:46:45.388Z,51.33
2023-03-30T20:49:13.003Z,50.61
2023-03-30T20:51:40.273Z,50.53
2023-03-30T20:54:07.163Z,50.75
2023-03-30T20:56:34.225Z,50.93
2023-03-30T20:59:02.380Z,51.04
2023-03-30T21:01:30.248Z,50.80
2023-03-30T21:03:58.182Z,50.79
2023-03-30T21:06:27.069Z,50.77
2023-03-30T21:08:54.885Z,50.16
2023-03-30T21:11:22.691Z,50.06
2023-03-30T21:13:52.691Z,50.05
2023-03-30T21:16:19.833Z,50.05
2023-03-30T21:18:46.702Z,49.58
2023-03-30T21:21:13.768Z,50.07
2023-03-30T21:23:41.519Z,49.75
2023-03-30T21:26:09.136Z,49.66
2023-03-30T21:28:36.284Z,49.68
2023-03-30T21:31:08.007Z,49.42
2023-03-30T21:33:35.530Z,48.83
2023-03-30T21:36:03.338Z,49.25
2023-03-30T21:38:30.605Z,48.78
2023-03-30T21:41:00.816Z,49.01
2023-03-30T21:43:32.222Z,49.27
2023-03-30T21:46:09.835Z,49.77
2023-03-30T21:48:38.423Z,49.28
2023-03-30T21:51:07.970Z,50.21
2023-03-30T21:53:35.306Z,49.94
2023-03-30T21:56:03.031Z,50.07
2023-03-30T21:58:29.969Z,49.93
2023-03-30T22:01:10.613Z,50.25
2023-03-30T22:03:39.804Z,50.49
2023-03-30T22:06:08.017Z,50.41
2023-03-30T22:08:35.400Z,50.39
2023-03-30T22:11:04.541Z,50.21
2023-03-30T22:13:31.463Z,50.51
2023-03-30T22:16:04.170Z,50.43
2023-03-30T22:18:31.413Z,50.63
2023-03-30T22:21:03.333Z,49.79
2023-03-30T22:23:30.527Z,49.72
2023-03-30T22:25:58.137Z,49.54
2023-03-30T22:28:25.252Z,49.65
2023-03-30T22:30:52.549Z,48.92
2023-03-30T22:33:19.462Z,49.50
2023-03-30T22:35:46.913Z,49.39
2023-03-30T22:38:14.113Z,49.58
2023-03-30T22:40:44.183Z,49.18
2023-03-30T22:43:11.838Z,49.72
2023-03-30T22:45:39.547Z,49.57
2023-03-30T22:48:06.552Z,50.04
2023-03-30T22:50:34.528Z,49.45
2023-03-30T22:53:01.387Z,49.49
2023-03-30T22:55:28.534Z,49.62
2023-03-30T22:57:56.643Z,49.51
2023-03-30T23:00:24.731Z,49.33
2023-03-30T23:02:51.690Z,49.54
2023-03-30T23:05:21.439Z,49.48
2023-03-30T23:07:48.953Z,49.66
2023-03-30T23:10:18.247Z,49.41
2023-03-30T23:12:45.583Z,49.96
2023-03-30T23:15:13.044Z,49.43
2023-03-30T23:17:39.866Z,49.38
2023-03-30T23:20:10.470Z,49.56
2023-03-30T23:22:38.349Z,49.25
2023-03-30T23:25:06.107Z,49.44
2023-03-30T23:27:33.547Z,49.31
2023-03-30T23:30:00.746Z,49.35
2023-03-30T23:32:27.525Z,49.42
2023-03-30T23:34:54.653Z,49.32
2023-03-30T23:40:07.838Z,49.41
2023-03-30T23:42:34.711Z,49.65
2023-03-30T23:45:01.805Z,49.37
2023-03-30T23:47:29.100Z,49.52
2023-03-30T23:49:56.376Z,49.22
2023-03-30T23:52:23.202Z,49.27
2023-03-30T23:54:52.417Z,49.30
2023-03-30T23:57:20.008Z,49.48
2023-03-30T23:59:47.181Z,49.26
